sensor_id;sensor_type;location;lat;lon;timestamp;P1;durP1;ratioP1;P2;durP2;ratioP2
15451;SDS011;7827;53.594;9.938;2023-04-25T00:01:48;13.57;;;6.63;;
15451;SDS011;7827;53.594;9.938;2023-04-25T00:04:17;19.27;;;6.03;;
15451;SDS011;7827;53.594;9.938;2023-04-25T00:06:46;15.97;;;6.70;;
15451;SDS011;7827;53.594;9.938;2023-04-25T00:09:14;12.67;;;6.13;;
15451;SDS011;7827;53.594;9.938;2023-04-25T00:11:43;17.33;;;6.70;;
15451;SDS011;7827;53.594;9.938;2023-04-25T00:14:11;19.87;;;6.60;;
15451;SDS011;7827;53.594;9.938;2023-04-25T00:16:39;12.13;;;5.77;;
15451;SDS011;7827;53.594;9.938;2023-04-25T00:19:10;26.80;;;6.10;;
15451;SDS011;7827;53.594;9.938;2023-04-25T00:21:39;23.37;;;6.33;;
15451;SDS011;7827;53.594;9.938;2023-04-25T00:24:07;22.33;;;6.10;;
15451;SDS011;7827;53.594;9.938;2023-04-25T00:26:35;23.17;;;6.37;;
15451;SDS011;7827;53.594;9.938;2023-04-25T00:29:05;26.80;;;6.10;;
15451;SDS011;7827;53.594;9.938;2023-04-25T00:31:33;25.80;;;6.13;;
15451;SDS011;7827;53.594;9.938;2023-04-25T00:34:01;21.07;;;6.63;;
15451;SDS011;7827;53.594;9.938;2023-04-25T00:36:30;28.70;;;6.40;;
15451;SDS011;7827;53.594;9.938;2023-04-25T00:38:58;27.43;;;7.20;;
15451;SDS011;7827;53.594;9.938;2023-04-25T00:41:26;26.13;;;6.40;;
15451;SDS011;7827;53.594;9.938;2023-04-25T00:43:56;25.93;;;5.73;;
15451;SDS011;7827;53.594;9.938;2023-04-25T00:46:26;24.23;;;5.90;;
15451;SDS011;7827;53.594;9.938;2023-04-25T00:48:54;19.80;;;5.53;;
15451;SDS011;7827;53.594;9.938;2023-04-25T00:51:22;23.10;;;5.83;;
15451;SDS011;7827;53.594;9.938;2023-04-25T00:53:51;29.17;;;6.30;;
15451;SDS011;7827;53.594;9.938;2023-04-25T00:56:21;25.73;;;5.80;;
15451;SDS011;7827;53.594;9.938;2023-04-25T00:58:49;26.67;;;6.13;;
15451;SDS011;7827;53.594;9.938;2023-04-25T01:01:20;30.73;;;6.10;;
15451;SDS011;7827;53.594;9.938;2023-04-25T01:03:50;26.57;;;6.33;;
15451;SDS011;7827;53.594;9.938;2023-04-25T01:06:21;27.63;;;6.53;;
15451;SDS011;7827;53.594;9.938;2023-04-25T01:08:49;21.70;;;5.23;;
15451;SDS011;7827;53.594;9.938;2023-04-25T01:11:19;17.93;;;5.83;;
15451;SDS011;7827;53.594;9.938;2023-04-25T01:13:47;26.70;;;6.50;;
15451;SDS011;7827;53.594;9.938;2023-04-25T01:16:19;27.97;;;6.53;;
15451;SDS011;7827;53.594;9.938;2023-04-25T01:18:51;24.77;;;6.83;;
15451;SDS011;7827;53.594;9.938;2023-04-25T01:21:21;23.30;;;6.60;;
15451;SDS011;7827;53.594;9.938;2023-04-25T01:23:50;37.03;;;7.57;;
15451;SDS011;7827;53.594;9.938;2023-04-25T01:26:19;24.43;;;6.27;;
15451;SDS011;7827;53.594;9.938;2023-04-25T01:28:49;24.03;;;6.13;;
15451;SDS011;7827;53.594;9.938;2023-04-25T01:31:18;32.17;;;6.33;;
15451;SDS011;7827;53.594;9.938;2023-04-25T01:33:47;28.70;;;6.40;;
15451;SDS011;7827;53.594;9.938;2023-04-25T01:36:15;21.93;;;6.07;;
15451;SDS011;7827;53.594;9.938;2023-04-25T01:38:46;25.23;;;6.53;;
15451;SDS011;7827;53.594;9.938;2023-04-25T01:41:14;27.03;;;6.27;;
15451;SDS011;7827;53.594;9.938;2023-04-25T01:43:44;30.27;;;6.70;;
15451;SDS011;7827;53.594;9.938;2023-04-25T01:46:12;29.80;;;6.60;;
15451;SDS011;7827;53.594;9.938;2023-04-25T01:48:40;22.30;;;6.23;;
15451;SDS011;7827;53.594;9.938;2023-04-25T01:51:08;28.30;;;6.17;;
15451;SDS011;7827;53.594;9.938;2023-04-25T01:53:38;26.43;;;6.23;;
15451;SDS011;7827;53.594;9.938;2023-04-25T01:56:08;31.07;;;6.60;;
15451;SDS011;7827;53.594;9.938;2023-04-25T01:58:37;29.97;;;6.97;;
15451;SDS011;7827;53.594;9.938;2023-04-25T02:01:41;24.90;;;6.20;;
15451;SDS011;7827;53.594;9.938;2023-04-25T02:04:17;27.43;;;6.07;;
15451;SDS011;7827;53.594;9.938;2023-04-25T02:06:46;31.90;;;6.37;;
15451;SDS011;7827;53.594;9.938;2023-04-25T02:09:15;25.43;;;6.30;;
15451;SDS011;7827;53.594;9.938;2023-04-25T02:11:52;23.67;;;6.53;;
15451;SDS011;7827;53.594;9.938;2023-04-25T02:14:27;23.63;;;5.23;;
15451;SDS011;7827;53.594;9.938;2023-04-25T02:17:03;22.33;;;5.80;;
15451;SDS011;7827;53.594;9.938;2023-04-25T02:19:32;25.30;;;6.20;;
15451;SDS011;7827;53.594;9.938;2023-04-25T02:22:00;27.40;;;6.30;;
15451;SDS011;7827;53.594;9.938;2023-04-25T02:24:28;20.13;;;6.60;;
15451;SDS011;7827;53.594;9.938;2023-04-25T02:26:59;35.43;;;6.90;;
15451;SDS011;7827;53.594;9.938;2023-04-25T02:29:29;24.90;;;6.10;;
15451;SDS011;7827;53.594;9.938;2023-04-25T02:31:57;25.63;;;7.77;;
15451;SDS011;7827;53.594;9.938;2023-04-25T02:34:25;28.17;;;6.17;;
15451;SDS011;7827;53.594;9.938;2023-04-25T02:36:53;21.70;;;6.13;;
15451;SDS011;7827;53.594;9.938;2023-04-25T02:39:22;32.00;;;6.17;;
15451;SDS011;7827;53.594;9.938;2023-04-25T02:41:51;18.30;;;6.43;;
15451;SDS011;7827;53.594;9.938;2023-04-25T02:44:22;24.67;;;6.53;;
15451;SDS011;7827;53.594;9.938;2023-04-25T02:46:50;31.53;;;6.07;;
15451;SDS011;7827;53.594;9.938;2023-04-25T02:49:18;20.07;;;5.80;;
15451;SDS011;7827;53.594;9.938;2023-04-25T02:51:46;24.17;;;6.17;;
15451;SDS011;7827;53.594;9.938;2023-04-25T02:54:14;17.47;;;5.43;;
15451;SDS011;7827;53.594;9.938;2023-04-25T02:56:46;25.00;;;6.43;;
15451;SDS011;7827;53.594;9.938;2023-04-25T02:59:20;20.53;;;5.30;;
15451;SDS011;7827;53.594;9.938;2023-04-25T03:01:49;23.13;;;6.17;;
15451;SDS011;7827;53.594;9.938;2023-04-25T03:04:17;20.13;;;5.30;;
15451;SDS011;7827;53.594;9.938;2023-04-25T03:06:47;22.07;;;6.40;;
15451;SDS011;7827;53.594;9.938;2023-04-25T03:09:16;24.37;;;5.40;;
15451;SDS011;7827;53.594;9.938;2023-04-25T03:11:44;27.43;;;6.07;;
15451;SDS011;7827;53.594;9.938;2023-04-25T03:14:13;19.43;;;5.13;;
15451;SDS011;7827;53.594;9.938;2023-04-25T03:16:42;29.30;;;5.37;;
15451;SDS011;7827;53.594;9.938;2023-04-25T03:19:11;16.57;;;5.27;;
15451;SDS011;7827;53.594;9.938;2023-04-25T03:21:42;27.93;;;5.67;;
15451;SDS011;7827;53.594;9.938;2023-04-25T03:24:12;17.17;;;4.97;;
15451;SDS011;7827;53.594;9.938;2023-04-25T03:26:41;23.03;;;5.60;;
15451;SDS011;7827;53.594;9.938;2023-04-25T03:29:09;17.40;;;4.93;;
15451;SDS011;7827;53.594;9.938;2023-04-25T03:31:39;18.07;;;5.13;;
15451;SDS011;7827;53.594;9.938;2023-04-25T03:34:10;20.83;;;5.57;;
15451;SDS011;7827;53.594;9.938;2023-04-25T03:36:38;21.40;;;4.60;;
15451;SDS011;7827;53.594;9.938;2023-04-25T03:39:07;21.77;;;5.50;;
15451;SDS011;7827;53.594;9.938;2023-04-25T03:41:37;16.07;;;5.43;;
15451;SDS011;7827;53.594;9.938;2023-04-25T03:44:11;16.87;;;4.93;;
15451;SDS011;7827;53.594;9.938;2023-04-25T03:46:39;21.10;;;5.27;;
15451;SDS011;7827;53.594;9.938;2023-04-25T03:49:07;12.57;;;4.33;;
15451;SDS011;7827;53.594;9.938;2023-04-25T03:51:57;21.10;;;4.93;;
15451;SDS011;7827;53.594;9.938;2023-04-25T03:54:26;20.23;;;5.00;;
15451;SDS011;7827;53.594;9.938;2023-04-25T03:57:00;17.20;;;4.87;;
15451;SDS011;7827;53.594;9.938;2023-04-25T03:59:32;24.77;;;6.17;;
15451;SDS011;7827;53.594;9.938;2023-04-25T04:02:01;15.13;;;5.17;;
15451;SDS011;7827;53.594;9.938;2023-04-25T04:04:33;19.37;;;5.73;;
15451;SDS011;7827;53.594;9.938;2023-04-25T04:07:02;21.50;;;5.07;;
15451;SDS011;7827;53.594;9.938;2023-04-25T04:09:34;26.43;;;5.43;;
15451;SDS011;7827;53.594;9.938;2023-04-25T04:12:07;22.73;;;5.60;;
15451;SDS011;7827;53.594;9.938;2023-04-25T04:14:37;15.87;;;4.67;;
15451;SDS011;7827;53.594;9.938;2023-04-25T04:17:05;22.40;;;4.57;;
15451;SDS011;7827;53.594;9.938;2023-04-25T04:19:35;20.50;;;5.10;;
15451;SDS011;7827;53.594;9.938;2023-04-25T04:22:09;19.23;;;4.83;;
15451;SDS011;7827;53.594;9.938;2023-04-25T04:24:38;14.73;;;5.00;;
15451;SDS011;7827;53.594;9.938;2023-04-25T04:27:07;19.60;;;4.60;;
15451;SDS011;7827;53.594;9.938;2023-04-25T04:29:43;19.93;;;5.90;;
15451;SDS011;7827;53.594;9.938;2023-04-25T04:32:43;22.30;;;5.43;;
15451;SDS011;7827;53.594;9.938;2023-04-25T04:35:15;21.10;;;5.10;;
15451;SDS011;7827;53.594;9.938;2023-04-25T04:37:43;29.20;;;5.40;;
15451;SDS011;7827;53.594;9.938;2023-04-25T04:40:14;21.03;;;4.43;;
15451;SDS011;7827;53.594;9.938;2023-04-25T04:42:51;22.37;;;5.07;;
15451;SDS011;7827;53.594;9.938;2023-04-25T04:45:45;21.20;;;4.50;;
15451;SDS011;7827;53.594;9.938;2023-04-25T04:48:23;22.30;;;4.60;;
15451;SDS011;7827;53.594;9.938;2023-04-25T04:51:17;21.17;;;5.13;;
15451;SDS011;7827;53.594;9.938;2023-04-25T04:54:00;20.63;;;4.70;;
15451;SDS011;7827;53.594;9.938;2023-04-25T04:56:51;14.73;;;4.30;;
15451;SDS011;7827;53.594;9.938;2023-04-25T04:59:49;24.70;;;5.27;;
15451;SDS011;7827;53.594;9.938;2023-04-25T05:02:40;13.93;;;4.90;;
15451;SDS011;7827;53.594;9.938;2023-04-25T05:05:28;15.87;;;4.63;;
15451;SDS011;7827;53.594;9.938;2023-04-25T05:08:20;17.27;;;4.60;;
15451;SDS011;7827;53.594;9.938;2023-04-25T05:11:13;9.70;;;3.93;;
15451;SDS011;7827;53.594;9.938;2023-04-25T05:14:08;15.53;;;4.50;;
15451;SDS011;7827;53.594;9.938;2023-04-25T05:16:43;13.63;;;3.80;;
15451;SDS011;7827;53.594;9.938;2023-04-25T05:19:36;17.03;;;4.20;;
15451;SDS011;7827;53.594;9.938;2023-04-25T05:22:17;16.07;;;4.30;;
15451;SDS011;7827;53.594;9.938;2023-04-25T05:25:00;13.70;;;4.27;;
15451;SDS011;7827;53.594;9.938;2023-04-25T05:27:52;16.53;;;4.70;;
15451;SDS011;7827;53.594;9.938;2023-04-25T05:30:39;10.30;;;3.83;;
15451;SDS011;7827;53.594;9.938;2023-04-25T05:33:13;19.80;;;5.07;;
15451;SDS011;7827;53.594;9.938;2023-04-25T05:35:43;19.27;;;4.33;;
15451;SDS011;7827;53.594;9.938;2023-04-25T05:38:13;16.40;;;4.93;;
15451;SDS011;7827;53.594;9.938;2023-04-25T05:41:17;14.10;;;4.67;;
15451;SDS011;7827;53.594;9.938;2023-04-25T05:43:59;17.90;;;4.63;;
15451;SDS011;7827;53.594;9.938;2023-04-25T05:46:43;17.07;;;6.03;;
15451;SDS011;7827;53.594;9.938;2023-04-25T05:49:21;20.57;;;5.13;;
15451;SDS011;7827;53.594;9.938;2023-04-25T05:52:04;14.07;;;4.30;;
15451;SDS011;7827;53.594;9.938;2023-04-25T05:54:45;17.87;;;4.67;;
15451;SDS011;7827;53.594;9.938;2023-04-25T05:57:22;13.50;;;4.70;;
15451;SDS011;7827;53.594;9.938;2023-04-25T05:59:53;20.23;;;4.80;;
15451;SDS011;7827;53.594;9.938;2023-04-25T06:02:25;19.60;;;4.33;;
15451;SDS011;7827;53.594;9.938;2023-04-25T06:04:54;18.17;;;4.60;;
15451;SDS011;7827;53.594;9.938;2023-04-25T06:07:22;22.87;;;5.10;;
15451;SDS011;7827;53.594;9.938;2023-04-25T06:09:50;21.57;;;5.43;;
15451;SDS011;7827;53.594;9.938;2023-04-25T06:12:19;14.07;;;4.30;;
15451;SDS011;7827;53.594;9.938;2023-04-25T06:14:50;15.13;;;4.97;;
15451;SDS011;7827;53.594;9.938;2023-04-25T06:17:19;15.87;;;4.93;;
15451;SDS011;7827;53.594;9.938;2023-04-25T06:19:49;14.03;;;3.90;;
15451;SDS011;7827;53.594;9.938;2023-04-25T06:22:17;15.20;;;4.40;;
15451;SDS011;7827;53.594;9.938;2023-04-25T06:24:45;13.03;;;4.10;;
15451;SDS011;7827;53.594;9.938;2023-04-25T06:27:13;14.20;;;3.70;;
15451;SDS011;7827;53.594;9.938;2023-04-25T06:29:44;24.27;;;4.83;;
15451;SDS011;7827;53.594;9.938;2023-04-25T06:32:13;16.07;;;4.47;;
15451;SDS011;7827;53.594;9.938;2023-04-25T06:34:41;13.73;;;3.93;;
15451;SDS011;7827;53.594;9.938;2023-04-25T06:37:10;15.73;;;4.40;;
15451;SDS011;7827;53.594;9.938;2023-04-25T06:39:38;16.10;;;4.87;;
15451;SDS011;7827;53.594;9.938;2023-04-25T06:42:06;17.27;;;4.07;;
15451;SDS011;7827;53.594;9.938;2023-04-25T06:44:58;16.60;;;4.77;;
15451;SDS011;7827;53.594;9.938;2023-04-25T06:47:29;14.73;;;4.30;;
15451;SDS011;7827;53.594;9.938;2023-04-25T06:49:58;16.67;;;4.40;;
15451;SDS011;7827;53.594;9.938;2023-04-25T06:52:26;17.70;;;4.27;;
15451;SDS011;7827;53.594;9.938;2023-04-25T06:54:54;17.93;;;4.70;;
15451;SDS011;7827;53.594;9.938;2023-04-25T06:57:34;17.13;;;4.13;;
15451;SDS011;7827;53.594;9.938;2023-04-25T07:00:24;14.83;;;4.10;;
15451;SDS011;7827;53.594;9.938;2023-04-25T07:02:52;19.77;;;4.60;;
15451;SDS011;7827;53.594;9.938;2023-04-25T07:05:21;17.57;;;4.20;;
15451;SDS011;7827;53.594;9.938;2023-04-25T07:07:49;15.93;;;4.20;;
15451;SDS011;7827;53.594;9.938;2023-04-25T07:10:17;18.33;;;4.40;;
15451;SDS011;7827;53.594;9.938;2023-04-25T07:12:47;16.67;;;4.57;;
15451;SDS011;7827;53.594;9.938;2023-04-25T07:15:16;10.47;;;3.30;;
15451;SDS011;7827;53.594;9.938;2023-04-25T07:17:48;11.57;;;3.87;;
15451;SDS011;7827;53.594;9.938;2023-04-25T07:20:16;12.07;;;3.50;;
15451;SDS011;7827;53.594;9.938;2023-04-25T07:22:45;11.47;;;3.37;;
15451;SDS011;7827;53.594;9.938;2023-04-25T07:25:13;14.37;;;3.33;;
15451;SDS011;7827;53.594;9.938;2023-04-25T07:27:41;15.10;;;3.90;;
15451;SDS011;7827;53.594;9.938;2023-04-25T07:30:16;11.23;;;3.50;;
15451;SDS011;7827;53.594;9.938;2023-04-25T07:32:44;13.43;;;3.10;;
15451;SDS011;7827;53.594;9.938;2023-04-25T07:35:14;14.67;;;3.40;;
15451;SDS011;7827;53.594;9.938;2023-04-25T07:37:42;14.50;;;2.97;;
15451;SDS011;7827;53.594;9.938;2023-04-25T07:40:14;13.07;;;3.50;;
15451;SDS011;7827;53.594;9.938;2023-04-25T07:42:50;11.53;;;2.77;;
15451;SDS011;7827;53.594;9.938;2023-04-25T07:45:27;14.00;;;2.97;;
15451;SDS011;7827;53.594;9.938;2023-04-25T07:47:55;15.63;;;3.77;;
15451;SDS011;7827;53.594;9.938;2023-04-25T07:50:25;16.50;;;3.37;;
15451;SDS011;7827;53.594;9.938;2023-04-25T07:52:53;10.47;;;3.63;;
15451;SDS011;7827;53.594;9.938;2023-04-25T07:55:27;13.53;;;3.70;;
15451;SDS011;7827;53.594;9.938;2023-04-25T07:58:03;11.90;;;3.40;;
15451;SDS011;7827;53.594;9.938;2023-04-25T08:00:31;11.60;;;3.67;;
15451;SDS011;7827;53.594;9.938;2023-04-25T08:03:21;17.07;;;3.53;;
15451;SDS011;7827;53.594;9.938;2023-04-25T08:05:51;12.47;;;3.77;;
15451;SDS011;7827;53.594;9.938;2023-04-25T08:08:20;9.47;;;3.37;;
15451;SDS011;7827;53.594;9.938;2023-04-25T08:10:48;14.40;;;3.23;;
15451;SDS011;7827;53.594;9.938;2023-04-25T08:13:17;11.53;;;3.20;;
15451;SDS011;7827;53.594;9.938;2023-04-25T08:15:45;14.03;;;3.53;;
15451;SDS011;7827;53.594;9.938;2023-04-25T08:18:13;9.50;;;3.10;;
15451;SDS011;7827;53.594;9.938;2023-04-25T08:20:44;9.90;;;2.83;;
15451;SDS011;7827;53.594;9.938;2023-04-25T08:23:15;10.00;;;3.40;;
15451;SDS011;7827;53.594;9.938;2023-04-25T08:25:51;14.13;;;4.27;;
15451;SDS011;7827;53.594;9.938;2023-04-25T08:28:23;16.63;;;3.23;;
15451;SDS011;7827;53.594;9.938;2023-04-25T08:30:52;13.73;;;3.70;;
15451;SDS011;7827;53.594;9.938;2023-04-25T08:33:21;12.20;;;3.33;;
15451;SDS011;7827;53.594;9.938;2023-04-25T08:36:00;9.97;;;2.63;;
15451;SDS011;7827;53.594;9.938;2023-04-25T08:38:31;14.50;;;3.53;;
15451;SDS011;7827;53.594;9.938;2023-04-25T08:41:01;8.57;;;2.57;;
15451;SDS011;7827;53.594;9.938;2023-04-25T08:43:31;5.90;;;3.03;;
15451;SDS011;7827;53.594;9.938;2023-04-25T08:46:02;10.97;;;2.70;;
15451;SDS011;7827;53.594;9.938;2023-04-25T08:48:40;13.37;;;2.80;;
15451;SDS011;7827;53.594;9.938;2023-04-25T08:51:14;10.67;;;3.63;;
15451;SDS011;7827;53.594;9.938;2023-04-25T08:53:52;11.07;;;3.30;;
15451;SDS011;7827;53.594;9.938;2023-04-25T08:56:27;11.20;;;2.90;;
15451;SDS011;7827;53.594;9.938;2023-04-25T08:58:56;9.33;;;2.63;;
15451;SDS011;7827;53.594;9.938;2023-04-25T09:01:25;12.80;;;3.37;;
15451;SDS011;7827;53.594;9.938;2023-04-25T09:03:54;15.83;;;3.17;;
15451;SDS011;7827;53.594;9.938;2023-04-25T09:06:25;12.70;;;3.47;;
15451;SDS011;7827;53.594;9.938;2023-04-25T09:08:55;9.83;;;2.47;;
15451;SDS011;7827;53.594;9.938;2023-04-25T09:11:31;10.70;;;2.40;;
15451;SDS011;7827;53.594;9.938;2023-04-25T09:14:10;11.90;;;2.63;;
15451;SDS011;7827;53.594;9.938;2023-04-25T09:17:03;9.67;;;2.57;;
15451;SDS011;7827;53.594;9.938;2023-04-25T09:19:42;11.50;;;2.40;;
15451;SDS011;7827;53.594;9.938;2023-04-25T09:22:30;17.00;;;2.90;;
15451;SDS011;7827;53.594;9.938;2023-04-25T09:25:00;11.73;;;2.87;;
15451;SDS011;7827;53.594;9.938;2023-04-25T09:27:31;14.57;;;3.20;;
15451;SDS011;7827;53.594;9.938;2023-04-25T09:30:15;14.57;;;3.23;;
15451;SDS011;7827;53.594;9.938;2023-04-25T09:33:08;12.80;;;3.30;;
15451;SDS011;7827;53.594;9.938;2023-04-25T09:35:43;11.17;;;2.93;;
15451;SDS011;7827;53.594;9.938;2023-04-25T09:38:39;9.43;;;2.77;;
15451;SDS011;7827;53.594;9.938;2023-04-25T09:41:21;8.77;;;2.53;;
15451;SDS011;7827;53.594;9.938;2023-04-25T09:43:56;14.00;;;3.47;;
15451;SDS011;7827;53.594;9.938;2023-04-25T09:46:35;11.67;;;3.50;;
15451;SDS011;7827;53.594;9.938;2023-04-25T09:49:11;11.07;;;2.83;;
15451;SDS011;7827;53.594;9.938;2023-04-25T09:52:15;6.20;;;3.03;;
15451;SDS011;7827;53.594;9.938;2023-04-25T09:54:56;10.83;;;2.87;;
15451;SDS011;7827;53.594;9.938;2023-04-25T09:57:32;10.03;;;3.27;;
15451;SDS011;7827;53.594;9.938;2023-04-25T10:00:06;8.90;;;2.33;;
15451;SDS011;7827;53.594;9.938;2023-04-25T10:02:42;11.53;;;3.30;;
15451;SDS011;7827;53.594;9.938;2023-04-25T10:05:34;8.70;;;3.20;;
15451;SDS011;7827;53.594;9.938;2023-04-25T10:08:04;8.50;;;2.70;;
15451;SDS011;7827;53.594;9.938;2023-04-25T10:10:35;9.97;;;2.73;;
15451;SDS011;7827;53.594;9.938;2023-04-25T10:13:06;11.10;;;2.47;;
15451;SDS011;7827;53.594;9.938;2023-04-25T10:15:35;6.07;;;2.20;;
15451;SDS011;7827;53.594;9.938;2023-04-25T10:18:06;8.23;;;2.43;;
15451;SDS011;7827;53.594;9.938;2023-04-25T10:20:35;7.97;;;2.30;;
15451;SDS011;7827;53.594;9.938;2023-04-25T10:23:04;6.37;;;2.53;;
15451;SDS011;7827;53.594;9.938;2023-04-25T10:25:41;13.23;;;2.60;;
15451;SDS011;7827;53.594;9.938;2023-04-25T10:28:12;9.70;;;2.43;;
15451;SDS011;7827;53.594;9.938;2023-04-25T10:33:34;10.70;;;2.83;;
15451;SDS011;7827;53.594;9.938;2023-04-25T10:36:13;6.90;;;2.27;;
15451;SDS011;7827;53.594;9.938;2023-04-25T10:38:45;10.43;;;2.93;;
15451;SDS011;7827;53.594;9.938;2023-04-25T10:41:17;10.80;;;2.60;;
15451;SDS011;7827;53.594;9.938;2023-04-25T10:43:49;11.50;;;2.47;;
15451;SDS011;7827;53.594;9.938;2023-04-25T10:46:29;6.90;;;2.30;;
15451;SDS011;7827;53.594;9.938;2023-04-25T10:48:58;8.37;;;2.00;;
15451;SDS011;7827;53.594;9.938;2023-04-25T10:51:28;6.90;;;2.50;;
15451;SDS011;7827;53.594;9.938;2023-04-25T10:54:19;11.07;;;2.70;;
15451;SDS011;7827;53.594;9.938;2023-04-25T10:56:52;12.67;;;3.30;;
15451;SDS011;7827;53.594;9.938;2023-04-25T10:59:22;9.45;;;2.63;;
15451;SDS011;7827;53.594;9.938;2023-04-25T11:01:52;9.53;;;2.43;;
15451;SDS011;7827;53.594;9.938;2023-04-25T11:04:22;10.40;;;2.93;;
15451;SDS011;7827;53.594;9.938;2023-04-25T11:07:07;8.97;;;2.43;;
15451;SDS011;7827;53.594;9.938;2023-04-25T11:09:51;7.87;;;2.40;;
15451;SDS011;7827;53.594;9.938;2023-04-25T11:12:19;8.37;;;2.10;;
15451;SDS011;7827;53.594;9.938;2023-04-25T11:14:49;6.50;;;2.40;;
15451;SDS011;7827;53.594;9.938;2023-04-25T11:17:18;11.47;;;2.77;;
15451;SDS011;7827;53.594;9.938;2023-04-25T11:19:47;10.40;;;2.30;;
15451;SDS011;7827;53.594;9.938;2023-04-25T11:22:16;9.60;;;3.50;;
15451;SDS011;7827;53.594;9.938;2023-04-25T11:24:44;10.70;;;3.13;;
15451;SDS011;7827;53.594;9.938;2023-04-25T11:27:13;10.23;;;2.63;;
15451;SDS011;7827;53.594;9.938;2023-04-25T11:29:41;8.07;;;2.40;;
15451;SDS011;7827;53.594;9.938;2023-04-25T11:32:11;7.67;;;2.40;;
15451;SDS011;7827;53.594;9.938;2023-04-25T11:34:42;4.63;;;1.93;;
15451;SDS011;7827;53.594;9.938;2023-04-25T11:37:12;9.93;;;2.50;;
15451;SDS011;7827;53.594;9.938;2023-04-25T11:39:44;12.67;;;2.90;;
15451;SDS011;7827;53.594;9.938;2023-04-25T11:42:13;7.70;;;2.13;;
15451;SDS011;7827;53.594;9.938;2023-04-25T11:44:41;3.93;;;1.70;;
15451;SDS011;7827;53.594;9.938;2023-04-25T11:47:12;7.73;;;2.13;;
15451;SDS011;7827;53.594;9.938;2023-04-25T11:49:40;8.00;;;2.30;;
15451;SDS011;7827;53.594;9.938;2023-04-25T11:52:08;8.57;;;2.40;;
15451;SDS011;7827;53.594;9.938;2023-04-25T11:54:37;5.93;;;2.03;;
15451;SDS011;7827;53.594;9.938;2023-04-25T11:57:06;9.37;;;2.60;;
15451;SDS011;7827;53.594;9.938;2023-04-25T11:59:35;4.73;;;2.10;;
15451;SDS011;7827;53.594;9.938;2023-04-25T12:02:03;8.23;;;1.90;;
15451;SDS011;7827;53.594;9.938;2023-04-25T12:04:34;11.73;;;2.30;;
15451;SDS011;7827;53.594;9.938;2023-04-25T12:07:03;4.37;;;1.40;;
15451;SDS011;7827;53.594;9.938;2023-04-25T12:09:32;9.17;;;1.60;;
15451;SDS011;7827;53.594;9.938;2023-04-25T12:12:02;5.33;;;1.90;;
15451;SDS011;7827;53.594;9.938;2023-04-25T12:14:32;8.47;;;1.67;;
15451;SDS011;7827;53.594;9.938;2023-04-25T12:17:03;6.70;;;1.83;;
15451;SDS011;7827;53.594;9.938;2023-04-25T12:19:36;5.65;;;1.98;;
15451;SDS011;7827;53.594;9.938;2023-04-25T12:22:18;8.27;;;2.30;;
15451;SDS011;7827;53.594;9.938;2023-04-25T12:24:48;6.35;;;1.98;;
15451;SDS011;7827;53.594;9.938;2023-04-25T12:27:17;7.97;;;1.70;;
15451;SDS011;7827;53.594;9.938;2023-04-25T12:29:52;7.13;;;1.80;;
15451;SDS011;7827;53.594;9.938;2023-04-25T12:32:22;8.30;;;2.22;;
15451;SDS011;7827;53.594;9.938;2023-04-25T12:34:52;6.68;;;1.48;;
15451;SDS011;7827;53.594;9.938;2023-04-25T12:37:21;9.27;;;2.05;;
15451;SDS011;7827;53.594;9.938;2023-04-25T12:39:49;7.00;;;1.92;;
15451;SDS011;7827;53.594;9.938;2023-04-25T12:42:18;6.90;;;2.33;;
15451;SDS011;7827;53.594;9.938;2023-04-25T12:44:46;2.47;;;1.70;;
15451;SDS011;7827;53.594;9.938;2023-04-25T12:47:14;12.77;;;2.47;;
15451;SDS011;7827;53.594;9.938;2023-04-25T12:49:42;9.93;;;2.90;;
15451;SDS011;7827;53.594;9.938;2023-04-25T12:52:12;6.77;;;2.47;;
15451;SDS011;7827;53.594;9.938;2023-04-25T12:54:40;7.17;;;2.30;;
15451;SDS011;7827;53.594;9.938;2023-04-25T12:57:08;5.90;;;2.07;;
15451;SDS011;7827;53.594;9.938;2023-04-25T12:59:37;11.70;;;2.30;;
15451;SDS011;7827;53.594;9.938;2023-04-25T13:02:06;10.30;;;2.53;;
15451;SDS011;7827;53.594;9.938;2023-04-25T13:04:34;7.03;;;1.97;;
15451;SDS011;7827;53.594;9.938;2023-04-25T13:07:02;7.47;;;2.03;;
15451;SDS011;7827;53.594;9.938;2023-04-25T13:09:33;10.80;;;2.67;;
15451;SDS011;7827;53.594;9.938;2023-04-25T13:12:01;7.37;;;2.03;;
15451;SDS011;7827;53.594;9.938;2023-04-25T13:14:30;5.30;;;2.10;;
15451;SDS011;7827;53.594;9.938;2023-04-25T13:16:58;5.50;;;2.17;;
15451;SDS011;7827;53.594;9.938;2023-04-25T13:19:27;5.67;;;1.73;;
15451;SDS011;7827;53.594;9.938;2023-04-25T13:21:55;8.20;;;2.03;;
15451;SDS011;7827;53.594;9.938;2023-04-25T13:24:25;6.47;;;2.00;;
15451;SDS011;7827;53.594;9.938;2023-04-25T13:26:55;9.30;;;2.10;;
15451;SDS011;7827;53.594;9.938;2023-04-25T13:29:23;5.87;;;2.67;;
15451;SDS011;7827;53.594;9.938;2023-04-25T13:31:51;7.90;;;2.60;;
15451;SDS011;7827;53.594;9.938;2023-04-25T13:34:20;10.70;;;2.50;;
15451;SDS011;7827;53.594;9.938;2023-04-25T13:36:48;9.33;;;3.33;;
15451;SDS011;7827;53.594;9.938;2023-04-25T13:39:16;10.20;;;2.63;;
15451;SDS011;7827;53.594;9.938;2023-04-25T13:41:44;7.00;;;2.60;;
15451;SDS011;7827;53.594;9.938;2023-04-25T13:44:15;12.37;;;2.90;;
15451;SDS011;7827;53.594;9.938;2023-04-25T13:46:45;5.77;;;2.43;;
15451;SDS011;7827;53.594;9.938;2023-04-25T13:49:13;7.77;;;2.50;;
15451;SDS011;7827;53.594;9.938;2023-04-25T13:51:42;12.03;;;2.30;;
15451;SDS011;7827;53.594;9.938;2023-04-25T13:54:10;5.17;;;2.37;;
15451;SDS011;7827;53.594;9.938;2023-04-25T13:56:39;8.80;;;2.27;;
15451;SDS011;7827;53.594;9.938;2023-04-25T13:59:09;7.00;;;2.07;;
15451;SDS011;7827;53.594;9.938;2023-04-25T14:01:39;4.83;;;2.30;;
15451;SDS011;7827;53.594;9.938;2023-04-25T14:04:08;9.07;;;2.87;;
15451;SDS011;7827;53.594;9.938;2023-04-25T14:06:36;9.67;;;2.63;;
15451;SDS011;7827;53.594;9.938;2023-04-25T14:09:04;5.43;;;2.47;;
15451;SDS011;7827;53.594;9.938;2023-04-25T14:11:36;6.93;;;2.43;;
15451;SDS011;7827;53.594;9.938;2023-04-25T14:14:05;8.77;;;2.63;;
15451;SDS011;7827;53.594;9.938;2023-04-25T14:16:33;5.67;;;2.40;;
15451;SDS011;7827;53.594;9.938;2023-04-25T14:19:03;8.90;;;2.37;;
15451;SDS011;7827;53.594;9.938;2023-04-25T14:21:31;9.80;;;2.60;;
15451;SDS011;7827;53.594;9.938;2023-04-25T14:24:00;11.30;;;2.73;;
15451;SDS011;7827;53.594;9.938;2023-04-25T14:26:28;9.73;;;2.60;;
15451;SDS011;7827;53.594;9.938;2023-04-25T14:28:57;8.53;;;2.47;;
15451;SDS011;7827;53.594;9.938;2023-04-25T14:31:25;7.63;;;2.93;;
15451;SDS011;7827;53.594;9.938;2023-04-25T14:33:54;8.67;;;2.30;;
15451;SDS011;7827;53.594;9.938;2023-04-25T14:36:26;10.67;;;2.30;;
15451;SDS011;7827;53.594;9.938;2023-04-25T14:38:57;5.17;;;1.97;;
15451;SDS011;7827;53.594;9.938;2023-04-25T14:41:25;7.23;;;2.33;;
15451;SDS011;7827;53.594;9.938;2023-04-25T14:43:54;5.93;;;1.93;;
15451;SDS011;7827;53.594;9.938;2023-04-25T14:46:23;12.93;;;2.60;;
15451;SDS011;7827;53.594;9.938;2023-04-25T14:48:51;14.10;;;2.77;;
15451;SDS011;7827;53.594;9.938;2023-04-25T14:51:22;5.33;;;1.90;;
15451;SDS011;7827;53.594;9.938;2023-04-25T14:53:52;5.13;;;2.00;;
15451;SDS011;7827;53.594;9.938;2023-04-25T14:56:20;7.43;;;1.90;;
15451;SDS011;7827;53.594;9.938;2023-04-25T14:58:51;3.47;;;1.80;;
15451;SDS011;7827;53.594;9.938;2023-04-25T15:01:20;6.53;;;2.20;;
15451;SDS011;7827;53.594;9.938;2023-04-25T15:03:49;12.13;;;2.60;;
15451;SDS011;7827;53.594;9.938;2023-04-25T15:06:19;11.47;;;2.73;;
15451;SDS011;7827;53.594;9.938;2023-04-25T15:08:47;12.17;;;2.93;;
15451;SDS011;7827;53.594;9.938;2023-04-25T15:11:19;11.37;;;2.83;;
15451;SDS011;7827;53.594;9.938;2023-04-25T15:13:48;11.37;;;2.73;;
15451;SDS011;7827;53.594;9.938;2023-04-25T15:16:17;8.50;;;2.97;;
15451;SDS011;7827;53.594;9.938;2023-04-25T15:18:45;11.30;;;2.70;;
15451;SDS011;7827;53.594;9.938;2023-04-25T15:21:14;14.20;;;3.60;;
15451;SDS011;7827;53.594;9.938;2023-04-25T15:23:42;8.50;;;2.87;;
15451;SDS011;7827;53.594;9.938;2023-04-25T15:26:11;11.17;;;2.40;;